sensor_id;sensor_type;location;lat;lon;timestamp;temperature;humidity
7684;DHT22;3884;48.616;12.872;2022-07-10T00:00:16;16.20;99.90
7684;DHT22;3884;48.616;12.872;2022-07-10T00:02:46;16.20;99.90
7684;DHT22;3884;48.616;12.872;2022-07-10T00:05:13;16.20;99.90
7684;DHT22;3884;48.616;12.872;2022-07-10T00:07:40;16.20;99.90
7684;DHT22;3884;48.616;12.872;2022-07-10T00:10:09;16.10;99.90
7684;DHT22;3884;48.616;12.872;2022-07-10T00:12:36;16.00;99.90
7684;DHT22;3884;48.616;12.872;2022-07-10T00:15:04;16.00;99.90
7684;DHT22;3884;48.616;12.872;2022-07-10T00:17:32;16.00;99.90
7684;DHT22;3884;48.616;12.872;2022-07-10T00:19:59;16.00;99.90
7684;DHT22;3884;48.616;12.872;2022-07-10T00:22:26;15.90;99.90
7684;DHT22;3884;48.616;12.872;2022-07-10T00:24:53;15.90;99.90
7684;DHT22;3884;48.616;12.872;2022-07-10T00:27:21;16.00;99.90
7684;DHT22;3884;48.616;12.872;2022-07-10T00:29:48;15.90;99.90
7684;DHT22;3884;48.616;12.872;2022-07-10T00:32:15;15.80;99.90
7684;DHT22;3884;48.616;12.872;2022-07-10T00:34:42;15.80;99.90
7684;DHT22;3884;48.616;12.872;2022-07-10T00:37:09;15.80;99.90
7684;DHT22;3884;48.616;12.872;2022-07-10T00:39:36;15.80;99.90
7684;DHT22;3884;48.616;12.872;2022-07-10T00:42:07;15.90;99.90
7684;DHT22;3884;48.616;12.872;2022-07-10T00:44:36;15.80;99.90
7684;DHT22;3884;48.616;12.872;2022-07-10T00:47:03;15.80;99.90
7684;DHT22;3884;48.616;12.872;2022-07-10T00:49:31;15.90;99.90
7684;DHT22;3884;48.616;12.872;2022-07-10T00:52:00;15.80;99.90
7684;DHT22;3884;48.616;12.872;2022-07-10T00:54:29;15.80;99.90
7684;DHT22;3884;48.616;12.872;2022-07-10T00:56:56;15.80;99.90
7684;DHT22;3884;48.616;12.872;2022-07-10T00:59:24;15.80;99.90
7684;DHT22;3884;48.616;12.872;2022-07-10T01:01:54;15.80;99.90
7684;DHT22;3884;48.616;12.872;2022-07-10T01:04:21;15.70;99.90
7684;DHT22;3884;48.616;12.872;2022-07-10T01:06:48;15.70;99.90
7684;DHT22;3884;48.616;12.872;2022-07-10T01:09:15;15.70;99.90
7684;DHT22;3884;48.616;12.872;2022-07-10T01:11:42;15.70;99.90
7684;DHT22;3884;48.616;12.872;2022-07-10T01:14:09;15.80;99.90
7684;DHT22;3884;48.616;12.872;2022-07-10T01:16:37;15.70;99.90
7684;DHT22;3884;48.616;12.872;2022-07-10T01:19:05;15.80;99.90
7684;DHT22;3884;48.616;12.872;2022-07-10T01:21:35;15.80;99.90
7684;DHT22;3884;48.616;12.872;2022-07-10T01:24:04;15.80;99.90
7684;DHT22;3884;48.616;12.872;2022-07-10T01:26:32;15.80;99.90
7684;DHT22;3884;48.616;12.872;2022-07-10T01:29:02;15.80;99.90
7684;DHT22;3884;48.616;12.872;2022-07-10T01:31:29;15.80;99.90
7684;DHT22;3884;48.616;12.872;2022-07-10T01:33:57;15.80;99.90
7684;DHT22;3884;48.616;12.872;2022-07-10T01:36:27;15.80;99.90
7684;DHT22;3884;48.616;12.872;2022-07-10T01:38:56;15.80;99.90
7684;DHT22;3884;48.616;12.872;2022-07-10T01:41:24;15.70;99.90
7684;DHT22;3884;48.616;12.872;2022-07-10T01:43:52;15.70;99.90
7684;DHT22;3884;48.616;12.872;2022-07-10T01:46:19;15.70;99.90
7684;DHT22;3884;48.616;12.872;2022-07-10T01:48:47;15.70;99.90
7684;DHT22;3884;48.616;12.872;2022-07-10T01:51:14;15.70;99.90
7684;DHT22;3884;48.616;12.872;2022-07-10T01:53:41;15.70;99.90
7684;DHT22;3884;48.616;12.872;2022-07-10T01:56:12;15.80;99.90
7684;DHT22;3884;48.616;12.872;2022-07-10T01:58:39;15.70;99.90
7684;DHT22;3884;48.616;12.872;2022-07-10T02:01:07;15.70;99.90
7684;DHT22;3884;48.616;12.872;2022-07-10T02:03:34;15.70;99.90
7684;DHT22;3884;48.616;12.872;2022-07-10T02:06:18;15.60;99.90
7684;DHT22;3884;48.616;12.872;2022-07-10T02:08:45;15.70;99.90
7684;DHT22;3884;48.616;12.872;2022-07-10T02:11:13;15.60;99.90
7684;DHT22;3884;48.616;12.872;2022-07-10T02:13:41;15.60;99.90
7684;DHT22;3884;48.616;12.872;2022-07-10T02:16:08;15.60;99.90
7684;DHT22;3884;48.616;12.872;2022-07-10T02:18:36;15.60;99.90
7684;DHT22;3884;48.616;12.872;2022-07-10T02:21:04;15.50;99.90
7684;DHT22;3884;48.616;12.872;2022-07-10T02:23:32;15.50;99.90
7684;DHT22;3884;48.616;12.872;2022-07-10T02:25:59;15.60;99.90
7684;DHT22;3884;48.616;12.872;2022-07-10T02:28:28;15.60;99.90
7684;DHT22;3884;48.616;12.872;2022-07-10T02:30:55;15.50;99.90
7684;DHT22;3884;48.616;12.872;2022-07-10T02:33:22;15.50;99.90
7684;DHT22;3884;48.616;12.872;2022-07-10T02:35:49;15.60;99.90
7684;DHT22;3884;48.616;12.872;2022-07-10T02:38:16;15.60;99.90
7684;DHT22;3884;48.616;12.872;2022-07-10T02:40:43;15.60;99.90
7684;DHT22;3884;48.616;12.872;2022-07-10T02:43:10;15.50;99.90
7684;DHT22;3884;48.616;12.872;2022-07-10T02:45:38;15.50;99.90
7684;DHT22;3884;48.616;12.872;2022-07-10T02:48:05;15.60;99.90
7684;DHT22;3884;48.616;12.872;2022-07-10T02:50:32;15.50;99.90
7684;DHT22;3884;48.616;12.872;2022-07-10T02:52:59;15.40;99.90
7684;DHT22;3884;48.616;12.872;2022-07-10T02:55:26;15.40;99.90
7684;DHT22;3884;48.616;12.872;2022-07-10T02:57:53;15.40;99.90
7684;DHT22;3884;48.616;12.872;2022-07-10T03:00:20;15.30;99.90
7684;DHT22;3884;48.616;12.872;2022-07-10T03:02:48;15.30;99.90
7684;DHT22;3884;48.616;12.872;2022-07-10T03:05:15;15.40;99.90
7684;DHT22;3884;48.616;12.872;2022-07-10T03:07:42;15.40;99.90
7684;DHT22;3884;48.616;12.872;2022-07-10T03:10:09;15.40;99.90
7684;DHT22;3884;48.616;12.872;2022-07-10T03:12:36;15.40;99.90
7684;DHT22;3884;48.616;12.872;2022-07-10T03:15:04;15.30;99.90
7684;DHT22;3884;48.616;12.872;2022-07-10T03:17:31;15.30;99.90
7684;DHT22;3884;48.616;12.872;2022-07-10T03:20:00;15.30;99.90
7684;DHT22;3884;48.616;12.872;2022-07-10T03:22:26;15.30;99.90
7684;DHT22;3884;48.616;12.872;2022-07-10T03:24:54;15.20;99.90
7684;DHT22;3884;48.616;12.872;2022-07-10T03:27:21;15.20;99.90
7684;DHT22;3884;48.616;12.872;2022-07-10T03:29:48;15.10;99.90
7684;DHT22;3884;48.616;12.872;2022-07-10T03:32:15;15.10;99.90
7684;DHT22;3884;48.616;12.872;2022-07-10T03:34:42;15.00;99.90
7684;DHT22;3884;48.616;12.872;2022-07-10T03:37:10;15.00;99.90
7684;DHT22;3884;48.616;12.872;2022-07-10T03:39:37;14.90;99.90
7684;DHT22;3884;48.616;12.872;2022-07-10T03:42:04;14.90;99.90
7684;DHT22;3884;48.616;12.872;2022-07-10T03:44:31;14.90;99.90
7684;DHT22;3884;48.616;12.872;2022-07-10T03:46:58;14.90;99.90
7684;DHT22;3884;48.616;12.872;2022-07-10T03:49:25;14.80;99.90
7684;DHT22;3884;48.616;12.872;2022-07-10T03:51:52;14.80;99.90
7684;DHT22;3884;48.616;12.872;2022-07-10T03:54:20;14.70;99.90
7684;DHT22;3884;48.616;12.872;2022-07-10T03:56:48;14.70;99.90
7684;DHT22;3884;48.616;12.872;2022-07-10T03:59:32;14.70;99.90
7684;DHT22;3884;48.616;12.872;2022-07-10T04:01:59;14.70;99.90
7684;DHT22;3884;48.616;12.872;2022-07-10T04:04:26;14.60;99.90
7684;DHT22;3884;48.616;12.872;2022-07-10T04:06:53;14.60;99.90
7684;DHT22;3884;48.616;12.872;2022-07-10T04:09:21;14.60;99.90
7684;DHT22;3884;48.616;12.872;2022-07-10T04:11:48;14.70;99.90
7684;DHT22;3884;48.616;12.872;2022-07-10T04:14:15;14.60;99.90
7684;DHT22;3884;48.616;12.872;2022-07-10T04:16:42;14.70;99.90
7684;DHT22;3884;48.616;12.872;2022-07-10T04:19:09;14.70;99.90
7684;DHT22;3884;48.616;12.872;2022-07-10T04:21:36;14.70;99.90
7684;DHT22;3884;48.616;12.872;2022-07-10T04:24:03;14.70;99.90
7684;DHT22;3884;48.616;12.872;2022-07-10T04:26:31;14.60;99.90
7684;DHT22;3884;48.616;12.872;2022-07-10T04:28:58;14.70;99.90
7684;DHT22;3884;48.616;12.872;2022-07-10T04:31:25;14.70;99.90
7684;DHT22;3884;48.616;12.872;2022-07-10T04:33:52;14.70;99.90
7684;DHT22;3884;48.616;12.872;2022-07-10T04:36:19;14.70;99.90
7684;DHT22;3884;48.616;12.872;2022-07-10T04:38:46;14.80;99.90
7684;DHT22;3884;48.616;12.872;2022-07-10T04:41:12;14.80;99.90
7684;DHT22;3884;48.616;12.872;2022-07-10T04:43:41;14.80;99.90
7684;DHT22;3884;48.616;12.872;2022-07-10T04:46:08;14.70;99.90
7684;DHT22;3884;48.616;12.872;2022-07-10T04:48:34;14.70;99.90
7684;DHT22;3884;48.616;12.872;2022-07-10T04:51:01;14.80;99.90
7684;DHT22;3884;48.616;12.872;2022-07-10T04:53:28;14.80;99.90
7684;DHT22;3884;48.616;12.872;2022-07-10T04:55:55;14.90;99.90
7684;DHT22;3884;48.616;12.872;2022-07-10T04:58:22;14.90;99.90
7684;DHT22;3884;48.616;12.872;2022-07-10T05:00:50;14.90;99.90
7684;DHT22;3884;48.616;12.872;2022-07-10T05:03:17;14.90;99.90
7684;DHT22;3884;48.616;12.872;2022-07-10T05:05:44;15.00;99.90
7684;DHT22;3884;48.616;12.872;2022-07-10T05:08:11;15.00;99.90
7684;DHT22;3884;48.616;12.872;2022-07-10T05:10:38;15.10;99.90
7684;DHT22;3884;48.616;12.872;2022-07-10T05:13:05;15.10;99.90
7684;DHT22;3884;48.616;12.872;2022-07-10T05:15:32;15.10;99.90
7684;DHT22;3884;48.616;12.872;2022-07-10T05:18:00;15.20;99.90
7684;DHT22;3884;48.616;12.872;2022-07-10T05:20:27;15.10;99.90
7684;DHT22;3884;48.616;12.872;2022-07-10T05:22:54;15.10;99.90
7684;DHT22;3884;48.616;12.872;2022-07-10T05:25:22;15.20;99.90
7684;DHT22;3884;48.616;12.872;2022-07-10T05:27:52;15.10;99.90
7684;DHT22;3884;48.616;12.872;2022-07-10T05:30:18;15.00;99.90
7684;DHT22;3884;48.616;12.872;2022-07-10T05:32:45;15.10;99.90
7684;DHT22;3884;48.616;12.872;2022-07-10T05:35:14;15.00;99.90
7684;DHT22;3884;48.616;12.872;2022-07-10T05:37:41;15.00;99.90
7684;DHT22;3884;48.616;12.872;2022-07-10T05:40:08;15.00;99.90
7684;DHT22;3884;48.616;12.872;2022-07-10T05:42:35;15.00;99.90
7684;DHT22;3884;48.616;12.872;2022-07-10T05:45:03;15.00;99.90
7684;DHT22;3884;48.616;12.872;2022-07-10T05:47:31;15.00;99.90
7684;DHT22;3884;48.616;12.872;2022-07-10T05:49:58;15.00;99.90
7684;DHT22;3884;48.616;12.872;2022-07-10T05:52:26;15.00;99.90
7684;DHT22;3884;48.616;12.872;2022-07-10T05:54:55;15.10;99.90
7684;DHT22;3884;48.616;12.872;2022-07-10T05:57:22;15.10;99.90
7684;DHT22;3884;48.616;12.872;2022-07-10T05:59:49;15.20;99.90
7684;DHT22;3884;48.616;12.872;2022-07-10T06:02:15;15.20;99.90
7684;DHT22;3884;48.616;12.872;2022-07-10T06:04:42;15.20;99.90
7684;DHT22;3884;48.616;12.872;2022-07-10T06:07:09;15.20;99.90
7684;DHT22;3884;48.616;12.872;2022-07-10T06:09:37;15.30;99.90
7684;DHT22;3884;48.616;12.872;2022-07-10T06:12:05;15.40;99.90
7684;DHT22;3884;48.616;12.872;2022-07-10T06:14:32;15.40;99.90
7684;DHT22;3884;48.616;12.872;2022-07-10T06:16:58;15.40;27.30
7684;DHT22;3884;48.616;12.872;2022-07-10T06:19:25;15.40;81.00
7684;DHT22;3884;48.616;12.872;2022-07-10T06:21:52;15.60;1.00
7684;DHT22;3884;48.616;12.872;2022-07-10T06:24:33;15.90;99.90
7684;DHT22;3884;48.616;12.872;2022-07-10T06:27:02;16.00;1.00
7684;DHT22;3884;48.616;12.872;2022-07-10T06:29:29;15.90;4.10
7684;DHT22;3884;48.616;12.872;2022-07-10T06:31:55;16.00;99.90
7684;DHT22;3884;48.616;12.872;2022-07-10T06:34:22;15.90;1.00
7684;DHT22;3884;48.616;12.872;2022-07-10T06:36:49;16.00;99.90
7684;DHT22;3884;48.616;12.872;2022-07-10T06:39:16;16.10;1.00
7684;DHT22;3884;48.616;12.872;2022-07-10T06:41:43;16.30;1.00
7684;DHT22;3884;48.616;12.872;2022-07-10T06:44:11;16.20;99.90
7684;DHT22;3884;48.616;12.872;2022-07-10T06:46:38;16.20;1.00
7684;DHT22;3884;48.616;12.872;2022-07-10T06:49:05;16.40;99.90
7684;DHT22;3884;48.616;12.872;2022-07-10T06:51:31;16.40;99.90
7684;DHT22;3884;48.616;12.872;2022-07-10T06:53:58;16.40;1.00
7684;DHT22;3884;48.616;12.872;2022-07-10T06:56:25;16.20;1.00
7684;DHT22;3884;48.616;12.872;2022-07-10T06:58:52;16.30;99.90
7684;DHT22;3884;48.616;12.872;2022-07-10T07:01:20;16.30;1.00
7684;DHT22;3884;48.616;12.872;2022-07-10T07:03:47;16.10;99.90
7684;DHT22;3884;48.616;12.872;2022-07-10T07:06:14;16.10;99.90
7684;DHT22;3884;48.616;12.872;2022-07-10T07:08:41;16.40;1.00
7684;DHT22;3884;48.616;12.872;2022-07-10T07:11:08;16.50;1.00
7684;DHT22;3884;48.616;12.872;2022-07-10T07:13:35;16.40;99.90
7684;DHT22;3884;48.616;12.872;2022-07-10T07:16:02;16.60;1.00
7684;DHT22;3884;48.616;12.872;2022-07-10T07:18:33;16.70;99.90
7684;DHT22;3884;48.616;12.872;2022-07-10T07:21:03;17.00;99.90
7684;DHT22;3884;48.616;12.872;2022-07-10T07:23:47;17.00;99.90
7684;DHT22;3884;48.616;12.872;2022-07-10T07:26:13;17.20;19.90
7684;DHT22;3884;48.616;12.872;2022-07-10T07:28:40;17.20;1.00
7684;DHT22;3884;48.616;12.872;2022-07-10T07:31:07;17.30;1.00
7684;DHT22;3884;48.616;12.872;2022-07-10T07:33:35;17.40;1.00
7684;DHT22;3884;48.616;12.872;2022-07-10T07:36:02;17.50;1.00
7684;DHT22;3884;48.616;12.872;2022-07-10T07:38:29;17.40;1.00
7684;DHT22;3884;48.616;12.872;2022-07-10T07:40:56;17.30;1.00
7684;DHT22;3884;48.616;12.872;2022-07-10T07:43:23;16.90;1.00
7684;DHT22;3884;48.616;12.872;2022-07-10T07:45:50;16.80;1.00
7684;DHT22;3884;48.616;12.872;2022-07-10T07:48:17;16.80;1.00
7684;DHT22;3884;48.616;12.872;2022-07-10T07:50:45;17.00;1.00
7684;DHT22;3884;48.616;12.872;2022-07-10T07:53:12;17.20;1.00
7684;DHT22;3884;48.616;12.872;2022-07-10T07:55:38;17.30;1.00
7684;DHT22;3884;48.616;12.872;2022-07-10T07:58:06;17.20;19.80
7684;DHT22;3884;48.616;12.872;2022-07-10T08:00:32;17.10;1.00
7684;DHT22;3884;48.616;12.872;2022-07-10T08:03:00;17.10;1.00
7684;DHT22;3884;48.616;12.872;2022-07-10T08:05:27;17.10;28.90
7684;DHT22;3884;48.616;12.872;2022-07-10T08:07:56;17.10;1.00
7684;DHT22;3884;48.616;12.872;2022-07-10T08:10:26;17.00;8.50
7684;DHT22;3884;48.616;12.872;2022-07-10T08:12:53;17.30;1.00
7684;DHT22;3884;48.616;12.872;2022-07-10T08:15:21;17.30;99.90
7684;DHT22;3884;48.616;12.872;2022-07-10T08:17:49;17.10;1.00
7684;DHT22;3884;48.616;12.872;2022-07-10T08:20:16;17.20;1.00
7684;DHT22;3884;48.616;12.872;2022-07-10T08:22:43;17.20;1.00
7684;DHT22;3884;48.616;12.872;2022-07-10T08:25:12;17.20;1.00
7684;DHT22;3884;48.616;12.872;2022-07-10T08:27:39;17.40;1.00
7684;DHT22;3884;48.616;12.872;2022-07-10T08:30:07;17.40;99.90
7684;DHT22;3884;48.616;12.872;2022-07-10T08:32:35;17.30;99.90
7684;DHT22;3884;48.616;12.872;2022-07-10T08:35:03;17.10;99.90
7684;DHT22;3884;48.616;12.872;2022-07-10T08:37:30;17.00;99.90
7684;DHT22;3884;48.616;12.872;2022-07-10T08:39:56;17.10;99.90
7684;DHT22;3884;48.616;12.872;2022-07-10T08:42:25;17.00;99.90
7684;DHT22;3884;48.616;12.872;2022-07-10T08:44:52;17.00;99.90
7684;DHT22;3884;48.616;12.872;2022-07-10T08:47:21;17.00;99.90
7684;DHT22;3884;48.616;12.872;2022-07-10T08:49:49;17.10;98.10
7684;DHT22;3884;48.616;12.872;2022-07-10T08:52:33;17.10;93.90
7684;DHT22;3884;48.616;12.872;2022-07-10T08:55:00;17.20;91.00
7684;DHT22;3884;48.616;12.872;2022-07-10T08:57:30;17.20;19.70
7684;DHT22;3884;48.616;12.872;2022-07-10T08:59:57;16.80;1.00
7684;DHT22;3884;48.616;12.872;2022-07-10T09:02:24;16.60;1.00
7684;DHT22;3884;48.616;12.872;2022-07-10T09:04:51;16.60;53.70
7684;DHT22;3884;48.616;12.872;2022-07-10T09:07:18;16.80;1.00
7684;DHT22;3884;48.616;12.872;2022-07-10T09:09:53;17.30;1.00
7684;DHT22;3884;48.616;12.872;2022-07-10T09:12:21;17.50;1.00
7684;DHT22;3884;48.616;12.872;2022-07-10T09:14:50;17.80;1.00
7684;DHT22;3884;48.616;12.872;2022-07-10T09:17:17;18.00;1.00
7684;DHT22;3884;48.616;12.872;2022-07-10T09:19:46;17.80;1.00
7684;DHT22;3884;48.616;12.872;2022-07-10T09:22:13;17.50;1.00
7684;DHT22;3884;48.616;12.872;2022-07-10T09:24:42;17.80;1.00
7684;DHT22;3884;48.616;12.872;2022-07-10T09:27:10;17.40;1.00
7684;DHT22;3884;48.616;12.872;2022-07-10T09:29:49;17.40;1.00
7684;DHT22;3884;48.616;12.872;2022-07-10T09:32:20;17.40;1.00
7684;DHT22;3884;48.616;12.872;2022-07-10T09:34:49;17.70;1.00
7684;DHT22;3884;48.616;12.872;2022-07-10T09:37:38;17.70;99.90
7684;DHT22;3884;48.616;12.872;2022-07-10T09:40:07;17.70;99.90
7684;DHT22;3884;48.616;12.872;2022-07-10T09:42:36;17.80;99.90
7684;DHT22;3884;48.616;12.872;2022-07-10T09:45:20;17.70;99.90
7684;DHT22;3884;48.616;12.872;2022-07-10T09:47:54;17.40;99.90
7684;DHT22;3884;48.616;12.872;2022-07-10T09:50:23;17.60;99.90
7684;DHT22;3884;48.616;12.872;2022-07-10T09:52:52;17.70;99.90
7684;DHT22;3884;48.616;12.872;2022-07-10T09:55:21;18.40;99.90
7684;DHT22;3884;48.616;12.872;2022-07-10T09:57:56;18.40;99.90
7684;DHT22;3884;48.616;12.872;2022-07-10T10:00:26;18.20;99.90
7684;DHT22;3884;48.616;12.872;2022-07-10T10:02:57;18.10;99.90
7684;DHT22;3884;48.616;12.872;2022-07-10T10:05:32;18.10;99.90
7684;DHT22;3884;48.616;12.872;2022-07-10T10:08:04;18.00;99.90
7684;DHT22;3884;48.616;12.872;2022-07-10T10:10:33;17.90;99.90
7684;DHT22;3884;48.616;12.872;2022-07-10T10:13:03;17.70;99.90
7684;DHT22;3884;48.616;12.872;2022-07-10T10:15:32;17.60;99.90
7684;DHT22;3884;48.616;12.872;2022-07-10T10:18:02;17.60;99.90
7684;DHT22;3884;48.616;12.872;2022-07-10T10:20:32;17.50;99.90
7684;DHT22;3884;48.616;12.872;2022-07-10T10:23:09;17.40;99.90
7684;DHT22;3884;48.616;12.872;2022-07-10T10:25:37;17.60;99.90
7684;DHT22;3884;48.616;12.872;2022-07-10T10:28:07;17.80;99.90
7684;DHT22;3884;48.616;12.872;2022-07-10T10:30:38;17.70;99.90
7684;DHT22;3884;48.616;12.872;2022-07-10T10:36:10;17.70;99.90
7684;DHT22;3884;48.616;12.872;2022-07-10T10:39:01;17.50;99.90
7684;DHT22;3884;48.616;12.872;2022-07-10T10:41:30;17.90;99.90
7684;DHT22;3884;48.616;12.872;2022-07-10T10:47:05;18.10;99.90
7684;DHT22;3884;48.616;12.872;2022-07-10T10:49:55;18.00;99.90
7684;DHT22;3884;48.616;12.872;2022-07-10T10:52:27;18.10;99.90
7684;DHT22;3884;48.616;12.872;2022-07-10T10:55:15;18.10;99.90
7684;DHT22;3884;48.616;12.872;2022-07-10T10:57:42;18.00;99.90
7684;DHT22;3884;48.616;12.872;2022-07-10T11:00:31;18.00;99.90
7684;DHT22;3884;48.616;12.872;2022-07-10T11:03:19;17.90;99.90
7684;DHT22;3884;48.616;12.872;2022-07-10T11:05:47;18.00;99.90
7684;DHT22;3884;48.616;12.872;2022-07-10T11:08:35;18.10;99.90
7684;DHT22;3884;48.616;12.872;2022-07-10T11:11:37;18.50;99.90
7684;DHT22;3884;48.616;12.872;2022-07-10T11:14:08;18.40;99.90
7684;DHT22;3884;48.616;12.872;2022-07-10T11:16:37;18.40;99.90
7684;DHT22;3884;48.616;12.872;2022-07-10T11:19:05;18.30;99.90
7684;DHT22;3884;48.616;12.872;2022-07-10T11:21:43;18.50;99.90
7684;DHT22;3884;48.616;12.872;2022-07-10T11:24:15;18.50;99.90
7684;DHT22;3884;48.616;12.872;2022-07-10T11:26:54;18.40;99.90
7684;DHT22;3884;48.616;12.872;2022-07-10T11:29:22;18.30;99.90
7684;DHT22;3884;48.616;12.872;2022-07-10T11:31:52;18.30;99.90
7684;DHT22;3884;48.616;12.872;2022-07-10T11:34:22;18.40;99.90
7684;DHT22;3884;48.616;12.872;2022-07-10T11:36:48;18.60;99.90
7684;DHT22;3884;48.616;12.872;2022-07-10T11:39:15;18.80;99.90
7684;DHT22;3884;48.616;12.872;2022-07-10T11:41:43;19.10;99.90
7684;DHT22;3884;48.616;12.872;2022-07-10T11:44:14;19.30;99.90
7684;DHT22;3884;48.616;12.872;2022-07-10T11:46:41;19.00;99.90
7684;DHT22;3884;48.616;12.872;2022-07-10T11:49:10;18.70;99.90
7684;DHT22;3884;48.616;12.872;2022-07-10T11:51:42;18.50;99.90
7684;DHT22;3884;48.616;12.872;2022-07-10T11:54:12;18.60;99.90
7684;DHT22;3884;48.616;12.872;2022-07-10T11:56:46;18.70;99.90
7684;DHT22;3884;48.616;12.872;2022-07-10T11:59:14;18.90;99.90
7684;DHT22;3884;48.616;12.872;2022-07-10T12:01:42;19.30;99.90
7684;DHT22;3884;48.616;12.872;2022-07-10T12:04:10;19.20;99.90
7684;DHT22;3884;48.616;12.872;2022-07-10T12:06:38;19.00;99.90
7684;DHT22;3884;48.616;12.872;2022-07-10T12:09:09;18.80;99.90
7684;DHT22;3884;48.616;12.872;2022-07-10T12:11:37;18.80;99.90
7684;DHT22;3884;48.616;12.872;2022-07-10T12:14:12;18.60;99.90
7684;DHT22;3884;48.616;12.872;2022-07-10T12:16:41;18.80;99.90
7684;DHT22;3884;48.616;12.872;2022-07-10T12:19:11;19.20;98.20
7684;DHT22;3884;48.616;12.872;2022-07-10T12:21:38;19.20;92.90
7684;DHT22;3884;48.616;12.872;2022-07-10T12:24:07;19.20;96.20
7684;DHT22;3884;48.616;12.872;2022-07-10T12:26:36;19.10;92.70
7684;DHT22;3884;48.616;12.872;2022-07-10T12:29:04;18.80;86.20
7684;DHT22;3884;48.616;12.872;2022-07-10T12:31:32;19.00;91.50
7684;DHT22;3884;48.616;12.872;2022-07-10T12:34:02;19.40;79.10
7684;DHT22;3884;48.616;12.872;2022-07-10T12:36:42;19.50;81.80
7684;DHT22;3884;48.616;12.872;2022-07-10T12:39:12;19.50;67.00
7684;DHT22;3884;48.616;12.872;2022-07-10T12:41:58;19.30;80.30
7684;DHT22;3884;48.616;12.872;2022-07-10T12:44:34;19.40;88.00
7684;DHT22;3884;48.616;12.872;2022-07-10T12:47:02;19.90;91.90
7684;DHT22;3884;48.616;12.872;2022-07-10T12:49:29;20.00;74.60
7684;DHT22;3884;48.616;12.872;2022-07-10T12:51:56;19.70;62.70
7684;DHT22;3884;48.616;12.872;2022-07-10T12:54:34;19.50;69.30
7684;DHT22;3884;48.616;12.872;2022-07-10T12:57:04;19.70;53.70
7684;DHT22;3884;48.616;12.872;2022-07-10T12:59:33;19.50;52.80
7684;DHT22;3884;48.616;12.872;2022-07-10T13:02:14;19.40;51.90
7684;DHT22;3884;48.616;12.872;2022-07-10T13:04:52;19.50;55.70
7684;DHT22;3884;48.616;12.872;2022-07-10T13:07:19;19.30;45.90
7684;DHT22;3884;48.616;12.872;2022-07-10T13:09:48;19.70;55.30
7684;DHT22;3884;48.616;12.872;2022-07-10T13:12:16;19.60;41.90
7684;DHT22;3884;48.616;12.872;2022-07-10T13:14:43;19.60;43.20
7684;DHT22;3884;48.616;12.872;2022-07-10T13:17:10;19.80;41.50
7684;DHT22;3884;48.616;12.872;2022-07-10T13:19:37;20.10;28.90
7684;DHT22;3884;48.616;12.872;2022-07-10T13:22:04;19.80;28.50
7684;DHT22;3884;48.616;12.872;2022-07-10T13:24:31;19.40;22.60
7684;DHT22;3884;48.616;12.872;2022-07-10T13:26:59;19.30;20.70
7684;DHT22;3884;48.616;12.872;2022-07-10T13:29:26;19.80;24.80
7684;DHT22;3884;48.616;12.872;2022-07-10T13:31:53;19.70;21.90
7684;DHT22;3884;48.616;12.872;2022-07-10T13:34:20;20.00;17.00
7684;DHT22;3884;48.616;12.872;2022-07-10T13:36:47;20.10;20.10
7684;DHT22;3884;48.616;12.872;2022-07-10T13:39:14;20.00;14.00
7684;DHT22;3884;48.616;12.872;2022-07-10T13:41:41;19.70;16.20
7684;DHT22;3884;48.616;12.872;2022-07-10T13:44:09;19.50;9.70
7684;DHT22;3884;48.616;12.872;2022-07-10T13:46:36;19.50;25.00
7684;DHT22;3884;48.616;12.872;2022-07-10T13:49:05;19.30;5.70
7684;DHT22;3884;48.616;12.872;2022-07-10T13:51:32;19.70;13.20
7684;DHT22;3884;48.616;12.872;2022-07-10T13:53:59;20.10;4.20
7684;DHT22;3884;48.616;12.872;2022-07-10T13:56:26;20.00;1.00
7684;DHT22;3884;48.616;12.872;2022-07-10T13:58:53;19.90;1.00
7684;DHT22;3884;48.616;12.872;2022-07-10T14:01:21;19.60;1.00
7684;DHT22;3884;48.616;12.872;2022-07-10T14:03:48;19.50;1.00
7684;DHT22;3884;48.616;12.872;2022-07-10T14:06:15;19.40;1.00
7684;DHT22;3884;48.616;12.872;2022-07-10T14:08:42;19.20;1.00
7684;DHT22;3884;48.616;12.872;2022-07-10T14:11:09;19.20;1.00
7684;DHT22;3884;48.616;12.872;2022-07-10T14:13:36;19.80;1.00
7684;DHT22;3884;48.616;12.872;2022-07-10T14:16:03;20.20;1.00
7684;DHT22;3884;48.616;12.872;2022-07-10T14:18:32;20.20;1.00
7684;DHT22;3884;48.616;12.872;2022-07-10T14:21:04;20.00;1.00
7684;DHT22;3884;48.616;12.872;2022-07-10T14:23:33;19.70;1.00
7684;DHT22;3884;48.616;12.872;2022-07-10T14:26:00;19.90;1.00
7684;DHT22;3884;48.616;12.872;2022-07-10T14:28:27;19.90;1.00
7684;DHT22;3884;48.616;12.872;2022-07-10T14:30:54;19.90;1.00
7684;DHT22;3884;48.616;12.872;2022-07-10T14:33:23;20.30;1.00
7684;DHT22;3884;48.616;12.872;2022-07-10T14:35:51;20.40;1.00
7684;DHT22;3884;48.616;12.872;2022-07-10T14:38:18;20.20;1.00
7684;DHT22;3884;48.616;12.872;2022-07-10T14:40:45;19.80;1.00
7684;DHT22;3884;48.616;12.872;2022-07-10T14:43:12;19.90;1.00
7684;DHT22;3884;48.616;12.872;2022-07-10T14:45:39;19.70;1.00
7684;DHT22;3884;48.616;12.872;2022-07-10T14:48:06;20.10;1.00
7684;DHT22;3884;48.616;12.872;2022-07-10T14:50:33;20.10;1.00
7684;DHT22;3884;48.616;12.872;2022-07-10T14:53:01;20.20;1.00
7684;DHT22;3884;48.616;12.872;2022-07-10T14:55:28;20.30;1.00
7684;DHT22;3884;48.616;12.872;2022-07-10T14:57:56;20.40;1.00
7684;DHT22;3884;48.616;12.872;2022-07-10T15:00:22;20.60;1.00
7684;DHT22;3884;48.616;12.872;2022-07-10T15:02:49;20.40;1.00
7684;DHT22;3884;48.616;12.872;2022-07-10T15:05:16;20.20;1.00
7684;DHT22;3884;48.616;12.872;2022-07-10T15:07:43;19.90;1.00
7684;DHT22;3884;48.616;12.872;2022-07-10T15:10:11;20.10;1.00
7684;DHT22;3884;48.616;12.872;2022-07-10T15:12:41;20.00;1.00
7684;DHT22;3884;48.616;12.872;2022-07-10T15:15:10;20.30;1.00
7684;DHT22;3884;48.616;12.872;2022-07-10T15:17:37;20.60;1.00
7684;DHT22;3884;48.616;12.872;2022-07-10T15:20:05;20.80;1.00
7684;DHT22;3884;48.616;12.872;2022-07-10T15:22:32;20.90;1.00
7684;DHT22;3884;48.616;12.872;2022-07-10T15:24:59;20.90;1.00
7684;DHT22;3884;48.616;12.872;2022-07-10T15:27:28;20.90;1.00
7684;DHT22;3884;48.616;12.872;2022-07-10T15:29:54;21.20;1.00
7684;DHT22;3884;48.616;12.872;2022-07-10T15:32:21;20.40;1.00
7684;DHT22;3884;48.616;12.872;2022-07-10T15:34:48;20.40;1.00
7684;DHT22;3884;48.616;12.872;2022-07-10T15:37:15;20.20;1.00
7684;DHT22;3884;48.616;12.872;2022-07-10T15:39:43;20.20;1.00
7684;DHT22;3884;48.616;12.872;2022-07-10T15:42:10;20.30;1.00
7684;DHT22;3884;48.616;12.872;2022-07-10T15:44:39;20.10;1.00
7684;DHT22;3884;48.616;12.872;2022-07-10T15:47:07;19.90;1.00
7684;DHT22;3884;48.616;12.872;2022-07-10T15:49:33;19.60;1.00
7684;DHT22;3884;48.616;12.872;2022-07-10T15:52:00;19.30;1.00
7684;DHT22;3884;48.616;12.872;2022-07-10T15:54:28;19.00;1.00
7684;DHT22;3884;48.616;12.872;2022-07-10T15:56:55;18.90;1.00
7684;DHT22;3884;48.616;12.872;2022-07-10T15:59:22;19.10;1.00
7684;DHT22;3884;48.616;12.872;2022-07-10T16:01:51;19.60;1.00
7684;DHT22;3884;48.616;12.872;2022-07-10T16:04:19;19.80;1.00